sensor_id;sensor_type;location;lat;lon;timestamp;P1;durP1;ratioP1;P2;durP2;ratioP2
54454;SDS011;40364;52.270;10.546;2023-03-03T00:02:15;14.82;;;5.47;;
54454;SDS011;40364;52.270;10.546;2023-03-03T00:04:42;13.25;;;5.05;;
54454;SDS011;40364;52.270;10.546;2023-03-03T00:07:09;11.63;;;5.10;;
54454;SDS011;40364;52.270;10.546;2023-03-03T00:09:37;11.10;;;4.93;;
54454;SDS011;40364;52.270;10.546;2023-03-03T00:12:12;15.85;;;5.50;;
54454;SDS011;40364;52.270;10.546;2023-03-03T00:14:42;11.75;;;5.20;;
54454;SDS011;40364;52.270;10.546;2023-03-03T00:17:11;11.48;;;4.90;;
54454;SDS011;40364;52.270;10.546;2023-03-03T00:19:40;11.75;;;5.22;;
54454;SDS011;40364;52.270;10.546;2023-03-03T00:22:13;12.13;;;5.18;;
54454;SDS011;40364;52.270;10.546;2023-03-03T00:24:42;12.32;;;5.55;;
54454;SDS011;40364;52.270;10.546;2023-03-03T00:27:16;10.98;;;5.47;;
54454;SDS011;40364;52.270;10.546;2023-03-03T00:29:48;14.50;;;4.70;;
54454;SDS011;40364;52.270;10.546;2023-03-03T00:32:20;11.82;;;5.15;;
54454;SDS011;40364;52.270;10.546;2023-03-03T00:34:48;14.68;;;5.53;;
54454;SDS011;40364;52.270;10.546;2023-03-03T00:37:28;9.07;;;3.95;;
54454;SDS011;40364;52.270;10.546;2023-03-03T00:40:08;12.27;;;5.05;;
54454;SDS011;40364;52.270;10.546;2023-03-03T00:42:38;16.08;;;5.50;;
54454;SDS011;40364;52.270;10.546;2023-03-03T00:45:15;11.88;;;5.20;;
54454;SDS011;40364;52.270;10.546;2023-03-03T00:47:42;13.18;;;5.45;;
54454;SDS011;40364;52.270;10.546;2023-03-03T00:50:16;16.70;;;5.97;;
54454;SDS011;40364;52.270;10.546;2023-03-03T00:52:49;13.27;;;5.40;;
54454;SDS011;40364;52.270;10.546;2023-03-03T00:55:20;12.63;;;4.80;;
54454;SDS011;40364;52.270;10.546;2023-03-03T00:57:46;11.23;;;5.15;;
54454;SDS011;40364;52.270;10.546;2023-03-03T01:00:13;12.38;;;5.22;;
54454;SDS011;40364;52.270;10.546;2023-03-03T01:02:40;16.98;;;5.75;;
54454;SDS011;40364;52.270;10.546;2023-03-03T01:05:11;15.80;;;6.07;;
54454;SDS011;40364;52.270;10.546;2023-03-03T01:07:38;15.10;;;6.00;;
54454;SDS011;40364;52.270;10.546;2023-03-03T01:10:05;17.55;;;6.57;;
54454;SDS011;40364;52.270;10.546;2023-03-03T01:12:33;15.10;;;6.07;;
54454;SDS011;40364;52.270;10.546;2023-03-03T01:15:00;13.77;;;5.63;;
54454;SDS011;40364;52.270;10.546;2023-03-03T01:17:27;20.50;;;7.07;;
54454;SDS011;40364;52.270;10.546;2023-03-03T01:19:54;14.32;;;6.30;;
54454;SDS011;40364;52.270;10.546;2023-03-03T01:22:21;19.30;;;6.40;;
54454;SDS011;40364;52.270;10.546;2023-03-03T01:24:47;21.05;;;7.80;;
54454;SDS011;40364;52.270;10.546;2023-03-03T01:27:14;20.73;;;7.05;;
54454;SDS011;40364;52.270;10.546;2023-03-03T01:29:42;18.15;;;7.45;;
54454;SDS011;40364;52.270;10.546;2023-03-03T01:32:09;17.77;;;7.20;;
54454;SDS011;40364;52.270;10.546;2023-03-03T01:34:35;18.90;;;6.90;;
54454;SDS011;40364;52.270;10.546;2023-03-03T01:37:02;21.38;;;6.18;;
54454;SDS011;40364;52.270;10.546;2023-03-03T01:39:28;21.25;;;6.65;;
54454;SDS011;40364;52.270;10.546;2023-03-03T01:41:55;14.23;;;6.40;;
54454;SDS011;40364;52.270;10.546;2023-03-03T01:44:21;18.20;;;6.85;;
54454;SDS011;40364;52.270;10.546;2023-03-03T01:46:52;16.60;;;6.75;;
54454;SDS011;40364;52.270;10.546;2023-03-03T01:49:20;16.52;;;6.63;;
54454;SDS011;40364;52.270;10.546;2023-03-03T01:51:48;18.70;;;7.32;;
54454;SDS011;40364;52.270;10.546;2023-03-03T01:54:17;15.43;;;6.75;;
54454;SDS011;40364;52.270;10.546;2023-03-03T01:56:45;20.33;;;7.32;;
54454;SDS011;40364;52.270;10.546;2023-03-03T01:59:13;20.95;;;6.90;;
54454;SDS011;40364;52.270;10.546;2023-03-03T02:01:41;25.90;;;7.82;;
54454;SDS011;40364;52.270;10.546;2023-03-03T02:04:09;17.52;;;7.28;;
54454;SDS011;40364;52.270;10.546;2023-03-03T02:06:36;20.65;;;7.45;;
54454;SDS011;40364;52.270;10.546;2023-03-03T02:09:04;24.77;;;7.88;;
54454;SDS011;40364;52.270;10.546;2023-03-03T02:11:33;22.17;;;8.27;;
54454;SDS011;40364;52.270;10.546;2023-03-03T02:14:01;17.10;;;6.50;;
54454;SDS011;40364;52.270;10.546;2023-03-03T02:16:28;18.67;;;7.45;;
54454;SDS011;40364;52.270;10.546;2023-03-03T02:18:54;20.90;;;7.57;;
54454;SDS011;40364;52.270;10.546;2023-03-03T02:21:23;18.33;;;7.10;;
54454;SDS011;40364;52.270;10.546;2023-03-03T02:23:52;18.88;;;7.10;;
54454;SDS011;40364;52.270;10.546;2023-03-03T02:26:21;18.50;;;6.97;;
54454;SDS011;40364;52.270;10.546;2023-03-03T02:28:48;21.48;;;6.72;;
54454;SDS011;40364;52.270;10.546;2023-03-03T02:31:16;19.58;;;6.82;;
54454;SDS011;40364;52.270;10.546;2023-03-03T02:33:44;18.70;;;6.63;;
54454;SDS011;40364;52.270;10.546;2023-03-03T02:36:11;20.88;;;7.28;;
54454;SDS011;40364;52.270;10.546;2023-03-03T02:38:40;18.55;;;6.95;;
54454;SDS011;40364;52.270;10.546;2023-03-03T02:41:09;17.67;;;7.05;;
54454;SDS011;40364;52.270;10.546;2023-03-03T02:43:40;21.95;;;7.50;;
54454;SDS011;40364;52.270;10.546;2023-03-03T02:46:10;17.83;;;6.35;;
54454;SDS011;40364;52.270;10.546;2023-03-03T02:48:37;24.85;;;7.18;;
54454;SDS011;40364;52.270;10.546;2023-03-03T02:51:03;20.00;;;7.05;;
54454;SDS011;40364;52.270;10.546;2023-03-03T02:53:30;22.30;;;7.47;;
54454;SDS011;40364;52.270;10.546;2023-03-03T02:55:56;17.83;;;6.97;;
54454;SDS011;40364;52.270;10.546;2023-03-03T02:58:23;21.25;;;7.75;;
54454;SDS011;40364;52.270;10.546;2023-03-03T03:00:51;20.67;;;7.07;;
54454;SDS011;40364;52.270;10.546;2023-03-03T03:03:19;22.13;;;7.03;;
54454;SDS011;40364;52.270;10.546;2023-03-03T03:05:45;21.38;;;6.97;;
54454;SDS011;40364;52.270;10.546;2023-03-03T03:08:12;17.88;;;6.75;;
54454;SDS011;40364;52.270;10.546;2023-03-03T03:10:39;18.17;;;6.90;;
54454;SDS011;40364;52.270;10.546;2023-03-03T03:13:05;21.50;;;7.05;;
54454;SDS011;40364;52.270;10.546;2023-03-03T03:15:32;21.52;;;7.05;;
54454;SDS011;40364;52.270;10.546;2023-03-03T03:18:01;16.48;;;6.18;;
54454;SDS011;40364;52.270;10.546;2023-03-03T03:20:28;23.13;;;7.70;;
54454;SDS011;40364;52.270;10.546;2023-03-03T03:22:54;20.48;;;7.28;;
54454;SDS011;40364;52.270;10.546;2023-03-03T03:25:21;20.08;;;6.57;;
54454;SDS011;40364;52.270;10.546;2023-03-03T03:27:47;23.02;;;7.50;;
54454;SDS011;40364;52.270;10.546;2023-03-03T03:30:14;21.08;;;7.30;;
54454;SDS011;40364;52.270;10.546;2023-03-03T03:32:41;15.57;;;6.55;;
54454;SDS011;40364;52.270;10.546;2023-03-03T03:35:09;18.25;;;7.00;;
54454;SDS011;40364;52.270;10.546;2023-03-03T03:37:36;18.48;;;6.72;;
54454;SDS011;40364;52.270;10.546;2023-03-03T03:40:03;18.13;;;6.47;;
54454;SDS011;40364;52.270;10.546;2023-03-03T03:42:30;20.50;;;7.07;;
54454;SDS011;40364;52.270;10.546;2023-03-03T03:44:56;16.92;;;6.18;;
54454;SDS011;40364;52.270;10.546;2023-03-03T03:47:23;17.45;;;5.68;;
54454;SDS011;40364;52.270;10.546;2023-03-03T03:49:49;20.08;;;6.60;;
54454;SDS011;40364;52.270;10.546;2023-03-03T03:52:17;18.77;;;6.65;;
54454;SDS011;40364;52.270;10.546;2023-03-03T03:54:43;17.73;;;5.70;;
54454;SDS011;40364;52.270;10.546;2023-03-03T03:57:10;20.40;;;6.95;;
54454;SDS011;40364;52.270;10.546;2023-03-03T03:59:36;19.25;;;6.88;;
54454;SDS011;40364;52.270;10.546;2023-03-03T04:02:03;21.80;;;7.75;;
54454;SDS011;40364;52.270;10.546;2023-03-03T04:04:29;23.80;;;8.15;;
54454;SDS011;40364;52.270;10.546;2023-03-03T04:06:56;20.27;;;7.00;;
54454;SDS011;40364;52.270;10.546;2023-03-03T04:09:25;18.77;;;7.93;;
54454;SDS011;40364;52.270;10.546;2023-03-03T04:11:52;20.95;;;6.47;;
54454;SDS011;40364;52.270;10.546;2023-03-03T04:14:18;21.00;;;7.45;;
54454;SDS011;40364;52.270;10.546;2023-03-03T04:16:45;18.88;;;6.72;;
54454;SDS011;40364;52.270;10.546;2023-03-03T04:19:11;17.55;;;6.95;;
54454;SDS011;40364;52.270;10.546;2023-03-03T04:21:38;15.90;;;6.05;;
54454;SDS011;40364;52.270;10.546;2023-03-03T04:24:04;18.90;;;6.25;;
54454;SDS011;40364;52.270;10.546;2023-03-03T04:26:32;17.88;;;6.63;;
54454;SDS011;40364;52.270;10.546;2023-03-03T04:28:59;18.55;;;5.88;;
54454;SDS011;40364;52.270;10.546;2023-03-03T04:31:26;13.50;;;5.82;;
54454;SDS011;40364;52.270;10.546;2023-03-03T04:33:52;18.90;;;6.93;;
54454;SDS011;40364;52.270;10.546;2023-03-03T04:36:19;20.73;;;6.47;;
54454;SDS011;40364;52.270;10.546;2023-03-03T04:38:45;21.35;;;7.07;;
54454;SDS011;40364;52.270;10.546;2023-03-03T04:41:13;19.33;;;6.68;;
54454;SDS011;40364;52.270;10.546;2023-03-03T04:43:41;18.83;;;5.90;;
54454;SDS011;40364;52.270;10.546;2023-03-03T04:46:08;18.05;;;7.05;;
54454;SDS011;40364;52.270;10.546;2023-03-03T04:48:34;23.40;;;7.10;;
54454;SDS011;40364;52.270;10.546;2023-03-03T04:51:01;20.52;;;6.65;;
54454;SDS011;40364;52.270;10.546;2023-03-03T04:53:27;20.95;;;7.43;;
54454;SDS011;40364;52.270;10.546;2023-03-03T04:55:54;29.58;;;8.38;;
54454;SDS011;40364;52.270;10.546;2023-03-03T04:58:20;23.90;;;7.68;;
54454;SDS011;40364;52.270;10.546;2023-03-03T05:00:51;23.13;;;8.80;;
54454;SDS011;40364;52.270;10.546;2023-03-03T05:03:18;23.38;;;8.07;;
54454;SDS011;40364;52.270;10.546;2023-03-03T05:05:46;15.85;;;5.95;;
54454;SDS011;40364;52.270;10.546;2023-03-03T05:08:12;20.15;;;7.15;;
54454;SDS011;40364;52.270;10.546;2023-03-03T05:10:39;15.30;;;5.65;;
54454;SDS011;40364;52.270;10.546;2023-03-03T05:13:06;20.58;;;6.45;;
54454;SDS011;40364;52.270;10.546;2023-03-03T05:15:33;19.85;;;6.10;;
54454;SDS011;40364;52.270;10.546;2023-03-03T05:18:01;19.75;;;6.70;;
54454;SDS011;40364;52.270;10.546;2023-03-03T05:20:27;23.23;;;8.05;;
54454;SDS011;40364;52.270;10.546;2023-03-03T05:22:54;22.40;;;7.13;;
54454;SDS011;40364;52.270;10.546;2023-03-03T05:25:23;17.08;;;5.90;;
54454;SDS011;40364;52.270;10.546;2023-03-03T05:27:50;22.05;;;7.05;;
54454;SDS011;40364;52.270;10.546;2023-03-03T05:30:16;15.27;;;5.90;;
54454;SDS011;40364;52.270;10.546;2023-03-03T05:32:43;21.92;;;7.75;;
54454;SDS011;40364;52.270;10.546;2023-03-03T05:35:12;21.15;;;7.40;;
54454;SDS011;40364;52.270;10.546;2023-03-03T05:37:38;22.80;;;7.47;;
54454;SDS011;40364;52.270;10.546;2023-03-03T05:40:11;21.60;;;7.30;;
54454;SDS011;40364;52.270;10.546;2023-03-03T05:42:38;21.58;;;7.15;;
54454;SDS011;40364;52.270;10.546;2023-03-03T05:45:05;18.35;;;6.57;;
54454;SDS011;40364;52.270;10.546;2023-03-03T05:47:31;23.25;;;7.25;;
54454;SDS011;40364;52.270;10.546;2023-03-03T05:49:58;21.80;;;7.75;;
54454;SDS011;40364;52.270;10.546;2023-03-03T05:52:26;22.73;;;7.35;;
54454;SDS011;40364;52.270;10.546;2023-03-03T05:54:53;20.92;;;6.47;;
54454;SDS011;40364;52.270;10.546;2023-03-03T05:57:20;26.77;;;8.13;;
54454;SDS011;40364;52.270;10.546;2023-03-03T06:00:01;22.63;;;6.93;;
54454;SDS011;40364;52.270;10.546;2023-03-03T06:02:29;25.10;;;8.05;;
54454;SDS011;40364;52.270;10.546;2023-03-03T06:04:55;24.17;;;8.00;;
54454;SDS011;40364;52.270;10.546;2023-03-03T06:07:22;26.05;;;7.72;;
54454;SDS011;40364;52.270;10.546;2023-03-03T06:09:50;18.75;;;6.70;;
54454;SDS011;40364;52.270;10.546;2023-03-03T06:12:16;28.25;;;8.38;;
54454;SDS011;40364;52.270;10.546;2023-03-03T06:14:43;27.08;;;8.43;;
54454;SDS011;40364;52.270;10.546;2023-03-03T06:17:09;20.77;;;7.13;;
54454;SDS011;40364;52.270;10.546;2023-03-03T06:19:36;24.85;;;7.28;;
54454;SDS011;40364;52.270;10.546;2023-03-03T06:22:03;23.33;;;7.22;;
54454;SDS011;40364;52.270;10.546;2023-03-03T06:24:29;22.10;;;8.32;;
54454;SDS011;40364;52.270;10.546;2023-03-03T06:26:57;20.95;;;6.97;;
54454;SDS011;40364;52.270;10.546;2023-03-03T06:29:24;22.63;;;8.13;;
54454;SDS011;40364;52.270;10.546;2023-03-03T06:31:51;25.25;;;8.52;;
54454;SDS011;40364;52.270;10.546;2023-03-03T06:34:17;23.65;;;8.40;;
54454;SDS011;40364;52.270;10.546;2023-03-03T06:36:44;30.60;;;9.10;;
54454;SDS011;40364;52.270;10.546;2023-03-03T06:39:10;29.92;;;8.98;;
54454;SDS011;40364;52.270;10.546;2023-03-03T06:41:37;23.08;;;8.52;;
54454;SDS011;40364;52.270;10.546;2023-03-03T06:44:05;31.40;;;9.93;;
54454;SDS011;40364;52.270;10.546;2023-03-03T06:46:31;24.98;;;8.55;;
54454;SDS011;40364;52.270;10.546;2023-03-03T06:48:58;31.00;;;8.95;;
54454;SDS011;40364;52.270;10.546;2023-03-03T06:51:24;31.83;;;8.68;;
54454;SDS011;40364;52.270;10.546;2023-03-03T06:53:53;26.23;;;9.25;;
54454;SDS011;40364;52.270;10.546;2023-03-03T06:56:20;26.15;;;8.90;;
54454;SDS011;40364;52.270;10.546;2023-03-03T06:58:47;27.35;;;9.02;;
54454;SDS011;40364;52.270;10.546;2023-03-03T07:01:16;32.38;;;10.57;;
54454;SDS011;40364;52.270;10.546;2023-03-03T07:03:42;31.45;;;8.98;;
54454;SDS011;40364;52.270;10.546;2023-03-03T07:06:13;26.08;;;8.27;;
54454;SDS011;40364;52.270;10.546;2023-03-03T07:08:41;26.88;;;8.90;;
54454;SDS011;40364;52.270;10.546;2023-03-03T07:11:10;26.65;;;8.52;;
54454;SDS011;40364;52.270;10.546;2023-03-03T07:13:38;31.00;;;9.85;;
54454;SDS011;40364;52.270;10.546;2023-03-03T07:16:08;27.88;;;8.73;;
54454;SDS011;40364;52.270;10.546;2023-03-03T07:18:38;28.77;;;8.75;;
54454;SDS011;40364;52.270;10.546;2023-03-03T07:21:06;24.50;;;7.63;;
54454;SDS011;40364;52.270;10.546;2023-03-03T07:23:38;23.75;;;8.88;;
54454;SDS011;40364;52.270;10.546;2023-03-03T07:26:07;23.58;;;8.70;;
54454;SDS011;40364;52.270;10.546;2023-03-03T07:28:35;31.90;;;9.05;;
54454;SDS011;40364;52.270;10.546;2023-03-03T07:31:03;31.13;;;8.35;;
54454;SDS011;40364;52.270;10.546;2023-03-03T07:33:43;22.98;;;8.10;;
54454;SDS011;40364;52.270;10.546;2023-03-03T07:36:20;25.35;;;8.48;;
54454;SDS011;40364;52.270;10.546;2023-03-03T07:38:48;26.33;;;8.68;;
54454;SDS011;40364;52.270;10.546;2023-03-03T07:41:17;23.08;;;8.57;;
54454;SDS011;40364;52.270;10.546;2023-03-03T07:43:47;27.02;;;8.15;;
54454;SDS011;40364;52.270;10.546;2023-03-03T07:46:25;26.33;;;8.38;;
54454;SDS011;40364;52.270;10.546;2023-03-03T07:48:54;21.48;;;7.72;;
54454;SDS011;40364;52.270;10.546;2023-03-03T07:51:21;27.63;;;8.65;;
54454;SDS011;40364;52.270;10.546;2023-03-03T07:53:49;22.88;;;8.13;;
54454;SDS011;40364;52.270;10.546;2023-03-03T07:56:23;23.83;;;8.07;;
54454;SDS011;40364;52.270;10.546;2023-03-03T07:58:51;29.70;;;8.73;;
54454;SDS011;40364;52.270;10.546;2023-03-03T08:01:28;29.42;;;9.65;;
54454;SDS011;40364;52.270;10.546;2023-03-03T08:03:58;29.10;;;9.52;;
54454;SDS011;40364;52.270;10.546;2023-03-03T08:06:39;24.38;;;8.55;;
54454;SDS011;40364;52.270;10.546;2023-03-03T08:12:13;23.25;;;7.43;;
54454;SDS011;40364;52.270;10.546;2023-03-03T08:14:43;24.55;;;8.43;;
54454;SDS011;40364;52.270;10.546;2023-03-03T08:17:12;20.90;;;7.70;;
54454;SDS011;40364;52.270;10.546;2023-03-03T08:19:41;24.73;;;8.52;;
54454;SDS011;40364;52.270;10.546;2023-03-03T08:22:09;31.95;;;9.15;;
54454;SDS011;40364;52.270;10.546;2023-03-03T08:24:37;28.58;;;8.68;;
54454;SDS011;40364;52.270;10.546;2023-03-03T08:27:04;23.70;;;8.43;;
54454;SDS011;40364;52.270;10.546;2023-03-03T08:29:31;24.40;;;7.95;;
54454;SDS011;40364;52.270;10.546;2023-03-03T08:31:58;25.17;;;9.02;;
54454;SDS011;40364;52.270;10.546;2023-03-03T08:34:24;21.92;;;8.23;;
54454;SDS011;40364;52.270;10.546;2023-03-03T08:36:52;25.90;;;8.40;;
54454;SDS011;40364;52.270;10.546;2023-03-03T08:39:22;26.50;;;8.50;;
54454;SDS011;40364;52.270;10.546;2023-03-03T08:41:48;20.10;;;8.68;;
54454;SDS011;40364;52.270;10.546;2023-03-03T08:44:14;21.40;;;8.02;;
54454;SDS011;40364;52.270;10.546;2023-03-03T08:46:41;32.83;;;8.63;;
54454;SDS011;40364;52.270;10.546;2023-03-03T08:49:08;25.58;;;8.43;;
54454;SDS011;40364;52.270;10.546;2023-03-03T08:51:34;28.98;;;9.23;;
54454;SDS011;40364;52.270;10.546;2023-03-03T08:54:03;25.42;;;9.23;;
54454;SDS011;40364;52.270;10.546;2023-03-03T08:56:29;22.63;;;8.35;;
54454;SDS011;40364;52.270;10.546;2023-03-03T08:58:56;27.80;;;9.13;;
54454;SDS011;40364;52.270;10.546;2023-03-03T09:01:22;28.75;;;8.77;;
54454;SDS011;40364;52.270;10.546;2023-03-03T09:03:48;23.20;;;8.18;;
54454;SDS011;40364;52.270;10.546;2023-03-03T09:06:15;24.52;;;8.65;;
54454;SDS011;40364;52.270;10.546;2023-03-03T09:08:41;31.27;;;10.18;;
54454;SDS011;40364;52.270;10.546;2023-03-03T09:11:10;27.08;;;9.70;;
54454;SDS011;40364;52.270;10.546;2023-03-03T09:13:37;32.55;;;9.48;;
54454;SDS011;40364;52.270;10.546;2023-03-03T09:16:06;33.63;;;9.48;;
54454;SDS011;40364;52.270;10.546;2023-03-03T09:18:36;25.02;;;8.13;;
54454;SDS011;40364;52.270;10.546;2023-03-03T09:21:13;23.05;;;9.20;;
54454;SDS011;40364;52.270;10.546;2023-03-03T09:23:41;22.58;;;8.38;;
54454;SDS011;40364;52.270;10.546;2023-03-03T09:26:21;23.15;;;10.00;;
54454;SDS011;40364;52.270;10.546;2023-03-03T09:28:50;27.30;;;9.20;;
54454;SDS011;40364;52.270;10.546;2023-03-03T09:31:20;35.05;;;10.38;;
54454;SDS011;40364;52.270;10.546;2023-03-03T09:33:47;23.80;;;8.85;;
54454;SDS011;40364;52.270;10.546;2023-03-03T09:36:18;28.08;;;9.20;;
54454;SDS011;40364;52.270;10.546;2023-03-03T09:38:46;23.75;;;8.55;;
54454;SDS011;40364;52.270;10.546;2023-03-03T09:41:15;23.15;;;8.82;;
54454;SDS011;40364;52.270;10.546;2023-03-03T09:43:54;23.35;;;8.52;;
54454;SDS011;40364;52.270;10.546;2023-03-03T09:46:22;23.52;;;9.10;;
54454;SDS011;40364;52.270;10.546;2023-03-03T09:48:51;22.90;;;8.30;;
54454;SDS011;40364;52.270;10.546;2023-03-03T09:51:25;18.30;;;7.65;;
54454;SDS011;40364;52.270;10.546;2023-03-03T09:54:05;21.98;;;7.28;;
54454;SDS011;40364;52.270;10.546;2023-03-03T09:56:35;17.83;;;6.28;;
54454;SDS011;40364;52.270;10.546;2023-03-03T09:59:11;19.88;;;7.18;;
54454;SDS011;40364;52.270;10.546;2023-03-03T10:01:42;18.27;;;6.35;;
54454;SDS011;40364;52.270;10.546;2023-03-03T10:06:54;20.23;;;7.82;;
54454;SDS011;40364;52.270;10.546;2023-03-03T10:09:29;20.67;;;8.07;;
54454;SDS011;40364;52.270;10.546;2023-03-03T10:12:02;22.48;;;8.43;;
54454;SDS011;40364;52.270;10.546;2023-03-03T10:14:45;20.70;;;7.40;;
54454;SDS011;40364;52.270;10.546;2023-03-03T10:17:21;21.98;;;8.63;;
54454;SDS011;40364;52.270;10.546;2023-03-03T10:19:52;21.92;;;8.07;;
54454;SDS011;40364;52.270;10.546;2023-03-03T10:22:23;25.95;;;8.27;;
54454;SDS011;40364;52.270;10.546;2023-03-03T10:24:58;27.95;;;9.00;;
54454;SDS011;40364;52.270;10.546;2023-03-03T10:27:29;26.15;;;7.28;;
54454;SDS011;40364;52.270;10.546;2023-03-03T10:30:06;24.77;;;8.32;;
54454;SDS011;40364;52.270;10.546;2023-03-03T10:32:42;23.50;;;8.15;;
54454;SDS011;40364;52.270;10.546;2023-03-03T10:38:09;30.67;;;10.43;;
54454;SDS011;40364;52.270;10.546;2023-03-03T10:40:40;32.22;;;9.57;;
54454;SDS011;40364;52.270;10.546;2023-03-03T10:43:24;28.80;;;9.13;;
54454;SDS011;40364;52.270;10.546;2023-03-03T10:46:00;26.23;;;10.18;;
54454;SDS011;40364;52.270;10.546;2023-03-03T10:48:37;27.25;;;10.75;;
54454;SDS011;40364;52.270;10.546;2023-03-03T10:51:08;36.47;;;12.68;;
54454;SDS011;40364;52.270;10.546;2023-03-03T10:53:41;30.23;;;11.25;;
54454;SDS011;40364;52.270;10.546;2023-03-03T10:56:12;33.53;;;11.43;;
54454;SDS011;40364;52.270;10.546;2023-03-03T10:58:44;35.60;;;11.93;;
54454;SDS011;40364;52.270;10.546;2023-03-03T11:01:14;39.30;;;11.93;;
54454;SDS011;40364;52.270;10.546;2023-03-03T11:03:56;33.95;;;10.68;;
54454;SDS011;40364;52.270;10.546;2023-03-03T11:06:28;37.28;;;12.73;;
54454;SDS011;40364;52.270;10.546;2023-03-03T11:09:02;32.95;;;12.18;;
54454;SDS011;40364;52.270;10.546;2023-03-03T11:11:32;35.53;;;11.05;;
54454;SDS011;40364;52.270;10.546;2023-03-03T11:14:05;35.67;;;11.63;;
54454;SDS011;40364;52.270;10.546;2023-03-03T11:16:39;31.13;;;10.48;;
54454;SDS011;40364;52.270;10.546;2023-03-03T11:19:20;33.10;;;11.77;;
54454;SDS011;40364;52.270;10.546;2023-03-03T11:21:52;31.73;;;10.52;;
54454;SDS011;40364;52.270;10.546;2023-03-03T11:24:33;32.45;;;11.10;;
54454;SDS011;40364;52.270;10.546;2023-03-03T11:27:14;28.20;;;9.77;;
54454;SDS011;40364;52.270;10.546;2023-03-03T11:29:47;29.55;;;10.05;;
54454;SDS011;40364;52.270;10.546;2023-03-03T11:32:20;31.45;;;11.10;;
54454;SDS011;40364;52.270;10.546;2023-03-03T11:34:59;34.75;;;12.38;;
54454;SDS011;40364;52.270;10.546;2023-03-03T11:37:34;31.25;;;10.57;;
54454;SDS011;40364;52.270;10.546;2023-03-03T11:40:08;28.75;;;11.27;;
54454;SDS011;40364;52.270;10.546;2023-03-03T11:42:39;25.13;;;10.43;;
54454;SDS011;40364;52.270;10.546;2023-03-03T11:45:11;29.38;;;12.00;;
54454;SDS011;40364;52.270;10.546;2023-03-03T11:47:41;27.75;;;10.07;;
54454;SDS011;40364;52.270;10.546;2023-03-03T11:50:13;29.73;;;10.23;;
54454;SDS011;40364;52.270;10.546;2023-03-03T11:52:42;27.05;;;9.75;;
54454;SDS011;40364;52.270;10.546;2023-03-03T11:55:14;23.13;;;9.45;;
54454;SDS011;40364;52.270;10.546;2023-03-03T11:57:41;20.88;;;8.48;;
54454;SDS011;40364;52.270;10.546;2023-03-03T12:00:19;25.90;;;10.05;;
54454;SDS011;40364;52.270;10.546;2023-03-03T12:02:59;24.17;;;9.57;;
54454;SDS011;40364;52.270;10.546;2023-03-03T12:05:35;28.17;;;11.90;;
54454;SDS011;40364;52.270;10.546;2023-03-03T12:08:06;28.33;;;10.52;;
54454;SDS011;40364;52.270;10.546;2023-03-03T12:10:34;26.75;;;10.63;;
54454;SDS011;40364;52.270;10.546;2023-03-03T12:13:03;29.33;;;12.07;;
54454;SDS011;40364;52.270;10.546;2023-03-03T12:15:32;24.90;;;9.13;;
54454;SDS011;40364;52.270;10.546;2023-03-03T12:20:44;23.80;;;9.73;;
54454;SDS011;40364;52.270;10.546;2023-03-03T12:23:21;24.90;;;9.13;;
54454;SDS011;40364;52.270;10.546;2023-03-03T12:25:56;25.23;;;9.35;;
54454;SDS011;40364;52.270;10.546;2023-03-03T12:28:27;22.30;;;9.30;;
54454;SDS011;40364;52.270;10.546;2023-03-03T12:31:06;22.83;;;9.57;;
54454;SDS011;40364;52.270;10.546;2023-03-03T12:33:49;21.75;;;8.00;;
54454;SDS011;40364;52.270;10.546;2023-03-03T12:36:21;18.38;;;7.75;;
54454;SDS011;40364;52.270;10.546;2023-03-03T12:38:51;22.35;;;9.05;;
54454;SDS011;40364;52.270;10.546;2023-03-03T12:41:22;19.85;;;9.48;;
54454;SDS011;40364;52.270;10.546;2023-03-03T12:43:55;25.55;;;10.00;;
54454;SDS011;40364;52.270;10.546;2023-03-03T12:46:24;29.00;;;10.85;;
54454;SDS011;40364;52.270;10.546;2023-03-03T12:48:54;25.35;;;10.82;;
54454;SDS011;40364;52.270;10.546;2023-03-03T12:51:27;23.13;;;8.85;;
54454;SDS011;40364;52.270;10.546;2023-03-03T12:56:42;27.65;;;11.27;;
54454;SDS011;40364;52.270;10.546;2023-03-03T12:59:11;30.33;;;11.30;;
54454;SDS011;40364;52.270;10.546;2023-03-03T13:01:42;30.80;;;11.88;;
54454;SDS011;40364;52.270;10.546;2023-03-03T13:04:13;36.42;;;12.63;;
54454;SDS011;40364;52.270;10.546;2023-03-03T13:06:45;27.75;;;10.40;;
54454;SDS011;40364;52.270;10.546;2023-03-03T13:09:18;30.00;;;11.95;;
54454;SDS011;40364;52.270;10.546;2023-03-03T13:11:51;29.42;;;11.43;;
54454;SDS011;40364;52.270;10.546;2023-03-03T13:14:22;33.22;;;13.30;;
54454;SDS011;40364;52.270;10.546;2023-03-03T13:16:57;30.55;;;12.27;;
54454;SDS011;40364;52.270;10.546;2023-03-03T13:19:26;29.33;;;12.05;;
54454;SDS011;40364;52.270;10.546;2023-03-03T13:21:54;35.65;;;12.45;;
54454;SDS011;40364;52.270;10.546;2023-03-03T13:24:26;34.40;;;12.25;;
54454;SDS011;40364;52.270;10.546;2023-03-03T13:26:55;28.75;;;11.55;;
54454;SDS011;40364;52.270;10.546;2023-03-03T13:29:24;27.90;;;10.32;;
54454;SDS011;40364;52.270;10.546;2023-03-03T13:31:53;27.65;;;11.43;;
54454;SDS011;40364;52.270;10.546;2023-03-03T13:34:23;27.08;;;10.85;;
54454;SDS011;40364;52.270;10.546;2023-03-03T13:36:50;24.90;;;10.52;;
54454;SDS011;40364;52.270;10.546;2023-03-03T13:39:21;30.00;;;10.20;;
54454;SDS011;40364;52.270;10.546;2023-03-03T13:41:48;24.10;;;10.43;;
54454;SDS011;40364;52.270;10.546;2023-03-03T13:44:18;24.60;;;11.15;;
54454;SDS011;40364;52.270;10.546;2023-03-03T13:46:46;25.10;;;9.77;;
54454;SDS011;40364;52.270;10.546;2023-03-03T13:49:24;23.98;;;9.48;;
54454;SDS011;40364;52.270;10.546;2023-03-03T13:51:56;23.92;;;9.85;;
54454;SDS011;40364;52.270;10.546;2023-03-03T13:54:33;21.55;;;10.18;;
54454;SDS011;40364;52.270;10.546;2023-03-03T13:57:07;31.67;;;9.80;;
54454;SDS011;40364;52.270;10.546;2023-03-03T13:59:39;24.38;;;9.90;;
54454;SDS011;40364;52.270;10.546;2023-03-03T14:02:18;34.08;;;10.43;;
54454;SDS011;40364;52.270;10.546;2023-03-03T14:04:51;27.67;;;10.00;;
54454;SDS011;40364;52.270;10.546;2023-03-03T14:07:20;22.02;;;10.13;;
54454;SDS011;40364;52.270;10.546;2023-03-03T14:09:57;26.00;;;10.88;;
54454;SDS011;40364;52.270;10.546;2023-03-03T14:12:28;26.23;;;10.20;;
54454;SDS011;40364;52.270;10.546;2023-03-03T14:14:58;25.27;;;11.98;;
54454;SDS011;40364;52.270;10.546;2023-03-03T14:17:31;28.73;;;11.43;;
54454;SDS011;40364;52.270;10.546;2023-03-03T14:20:00;32.80;;;12.98;;
54454;SDS011;40364;52.270;10.546;2023-03-03T14:22:29;33.58;;;13.45;;
54454;SDS011;40364;52.270;10.546;2023-03-03T14:25:03;37.03;;;14.45;;
54454;SDS011;40364;52.270;10.546;2023-03-03T14:27:34;32.22;;;13.25;;
54454;SDS011;40364;52.270;10.546;2023-03-03T14:32:42;38.92;;;13.88;;
54454;SDS011;40364;52.270;10.546;2023-03-03T14:35:23;36.17;;;15.43;;
54454;SDS011;40364;52.270;10.546;2023-03-03T14:37:54;36.90;;;14.32;;
54454;SDS011;40364;52.270;10.546;2023-03-03T14:40:30;40.92;;;14.68;;
54454;SDS011;40364;52.270;10.546;2023-03-03T14:42:58;41.80;;;16.15;;
54454;SDS011;40364;52.270;10.546;2023-03-03T14:45:32;36.20;;;13.35;;
54454;SDS011;40364;52.270;10.546;2023-03-03T14:48:05;38.05;;;14.85;;
54454;SDS011;40364;52.270;10.546;2023-03-03T14:50:35;26.30;;;10.30;;